Time;durP1;ratioP1;P1;durP2;ratioP2;P2;SDS_P1;SDS_P2;PMS_P1;PMS_P2;Temp;Humidity;BMP_temperature;BMP_pressure;BME280_temperature;BME280_humidity;BME280_pressure;Samples;Min_cycle;Max_cycle;Signal;HPM_P1;HPM_P2
2021/07/22 00:00:28;;;;;;;7.28;4.45;;;;;;;16.25;75.10;98725.76;1684359;85;20905;-65
2021/07/22 00:02:54;;;;;;;6.67;4.67;;;;;;;16.24;74.91;98714.55;1684389;84;20952;-65
2021/07/22 00:05:20;;;;;;;5.08;4.10;;;;;;;16.22;75.51;98719.72;1684216;84;21117;-65
2021/07/22 00:07:47;;;;;;;7.00;4.95;;;;;;;16.20;75.58;98721.21;1684605;85;21454;-65
2021/07/22 00:10:15;;;;;;;5.72;4.53;;;;;;;16.17;75.16;98722.84;1684565;84;21438;-65
2021/07/22 00:12:41;;;;;;;5.10;3.80;;;;;;;16.16;75.56;98719.78;1684560;84;20941;-65
2021/07/22 00:15:09;;;;;;;6.37;4.35;;;;;;;16.18;75.74;98720.50;1684383;85;20893;-65
2021/07/22 00:17:36;;;;;;;4.50;4.08;;;;;;;16.21;75.55;98718.88;1684495;85;21192;-65
2021/07/22 00:20:05;;;;;;;10.23;4.65;;;;;;;16.23;75.02;98722.30;1684540;85;20993;-65
2021/07/22 00:22:32;;;;;;;6.25;4.45;;;;;;;16.26;74.79;98716.61;1684623;85;21322;-65
2021/07/22 00:24:58;;;;;;;5.00;4.42;;;;;;;16.29;74.60;98721.39;1655431;85;20890;-65
2021/07/22 00:27:24;;;;;;;6.80;4.20;;;;;;;16.29;74.53;98715.97;1684939;85;20953;-65
2021/07/22 00:29:52;;;;;;;5.58;4.47;;;;;;;16.33;74.61;98718.78;1684458;84;21154;-65
2021/07/22 00:32:20;;;;;;;6.03;4.28;;;;;;;16.34;74.02;98717.30;1684730;85;20893;-65
2021/07/22 00:34:47;;;;;;;5.92;5.33;;;;;;;16.36;73.92;98716.66;1684289;84;20933;-65
2021/07/22 00:37:13;;;;;;;6.70;4.37;;;;;;;16.38;73.82;98715.16;1684380;84;21992;-65
2021/07/22 00:39:40;;;;;;;6.08;4.67;;;;;;;16.40;73.83;98714.55;1693625;84;21410;-65
2021/07/22 00:42:08;;;;;;;10.15;4.65;;;;;;;16.40;73.47;98718.63;1699883;84;21149;-65
2021/07/22 00:44:35;;;;;;;8.13;4.70;;;;;;;16.41;73.14;98710.35;1699756;84;21003;-65
2021/07/22 00:47:02;;;;;;;4.72;3.85;;;;;;;16.41;72.91;98709.47;1699881;84;21035;-65
2021/07/22 00:49:29;;;;;;;5.87;4.58;;;;;;;16.42;73.07;98712.55;1699801;84;21366;-65
2021/07/22 00:51:57;;;;;;;5.83;4.47;;;;;;;16.41;73.20;98709.47;1699895;84;20900;-65
2021/07/22 00:54:24;;;;;;;5.65;4.40;;;;;;;16.40;72.98;98706.42;1699968;84;21972;-65
2021/07/22 00:56:52;;;;;;;4.05;3.72;;;;;;;16.41;72.81;98706.77;1699706;84;21039;-66
2021/07/22 00:59:19;;;;;;;5.15;4.30;;;;;;;16.40;72.81;98707.27;1699782;84;20937;-65
2021/07/22 01:01:45;;;;;;;5.10;4.05;;;;;;;16.41;72.62;98714.89;1699943;84;20940;-65
2021/07/22 01:04:14;;;;;;;5.80;4.80;;;;;;;16.40;72.34;98711.34;1690877;84;21015;-65
2021/07/22 01:06:40;;;;;;;5.72;4.35;;;;;;;16.38;72.59;98709.74;1700108;84;21807;-65
2021/07/22 01:09:09;;;;;;;9.20;4.12;;;;;;;16.38;72.76;98708.39;1699763;84;20940;-65
2021/07/22 01:11:37;;;;;;;6.50;4.28;;;;;;;16.38;72.75;98709.27;1699797;84;20889;-65
2021/07/22 01:14:04;;;;;;;6.78;4.72;;;;;;;16.39;72.65;98706.89;1699957;84;21369;-65
2021/07/22 01:16:31;;;;;;;4.78;4.17;;;;;;;16.40;72.92;98694.22;1699800;84;20861;-65
2021/07/22 01:18:57;;;;;;;6.33;4.33;;;;;;;16.41;72.34;98704.05;1699804;84;21137;-65
2021/07/22 01:21:24;;;;;;;5.58;3.92;;;;;;;16.40;72.05;98705.91;1699723;84;20996;-65
2021/07/22 01:23:51;;;;;;;5.45;3.98;;;;;;;16.40;72.12;98702.36;1700096;84;21519;-65
2021/07/22 01:26:35;;;;;;;4.40;3.87;;;;;;;16.39;71.83;98701.98;1698941;84;21393;-65
2021/07/22 01:29:04;;;;;;;5.42;3.98;;;;;;;16.40;71.68;98699.64;1699952;84;20913;-65
2021/07/22 01:31:32;;;;;;;4.65;4.17;;;;;;;16.41;71.89;98704.05;1699765;84;21151;-65
2021/07/22 01:33:59;;;;;;;4.05;3.65;;;;;;;16.41;72.00;98701.34;1699914;84;21418;-65
2021/07/22 01:36:27;;;;;;;4.45;3.55;;;;;;;16.41;72.46;98704.93;1699749;83;20881;-65
2021/07/22 01:38:54;;;;;;;4.78;3.87;;;;;;;16.43;72.65;98695.30;1699912;84;21393;-65
2021/07/22 01:41:20;;;;;;;6.75;4.53;;;;;;;16.46;72.59;98700.45;1700569;84;21441;-64
2021/07/22 01:43:47;;;;;;;4.60;3.65;;;;;;;16.48;72.87;98705.23;1700816;84;21963;-65
2021/07/22 01:46:20;;;;;;;7.85;5.17;;;;;;;16.50;72.53;98712.73;1700378;84;21477;-65
2021/07/22 01:48:48;;;;;;;5.30;3.80;;;;;;;16.50;72.53;98711.38;1700895;84;21363;-65
2021/07/22 01:51:15;;;;;;;4.42;3.92;;;;;;;16.52;72.50;98712.08;1700558;84;20968;-65
2021/07/22 01:53:43;;;;;;;4.45;3.92;;;;;;;16.52;72.32;98708.02;1666030;86;20957;-65
2021/07/22 01:56:10;;;;;;;7.45;4.33;;;;;;;16.55;72.04;98706.89;1685641;85;21888;-65
2021/07/22 01:58:39;;;;;;;8.33;4.58;;;;;;;16.56;72.15;98702.69;1685537;85;20905;-65
2021/07/22 02:01:05;;;;;;;4.10;3.70;;;;;;;16.56;71.90;98704.55;1686082;85;20907;-65
2021/07/22 02:03:33;;;;;;;5.35;4.17;;;;;;;16.55;71.84;98703.67;1685517;84;21001;-65
2021/07/22 02:06:08;;;;;;;6.85;4.45;;;;;;;16.53;72.18;98697.55;1685831;85;20882;-65
2021/07/22 02:08:37;;;;;;;8.48;4.45;;;;;;;16.54;72.22;98704.69;1685590;84;21125;-65
2021/07/22 02:11:04;;;;;;;5.15;4.30;;;;;;;16.57;72.05;98696.77;1685603;85;21422;-66
2021/07/22 02:13:32;;;;;;;4.87;4.28;;;;;;;16.57;72.31;98709.84;1685626;85;20990;-65
2021/07/22 02:15:59;;;;;;;5.30;4.50;;;;;;;16.57;72.18;98700.35;1685575;85;20897;-65
2021/07/22 02:18:33;;;;;;;4.53;4.08;;;;;;;16.56;72.09;98702.69;1685676;85;20948;-65
2021/07/22 02:21:07;;;;;;;4.03;3.60;;;;;;;16.58;72.57;98700.69;1685198;84;21829;-65
2021/07/22 02:23:36;;;;;;;5.60;4.53;;;;;;;16.60;72.44;98708.22;1685516;85;20949;-65
2021/07/22 02:26:08;;;;;;;7.95;4.28;;;;;;;16.63;72.17;98711.13;1685543;85;20889;-65
2021/07/22 02:28:36;;;;;;;4.72;4.12;;;;;;;16.65;71.78;98708.28;1685534;85;21458;-65
2021/07/22 02:31:03;;;;;;;5.75;4.22;;;;;;;16.66;71.63;98710.86;1667956;85;20968;-65
2021/07/22 02:33:30;;;;;;;6.00;4.28;;;;;;;16.64;71.40;98709.30;1685764;84;21794;-65
2021/07/22 02:35:57;;;;;;;4.95;3.45;;;;;;;16.62;71.52;98712.99;1685602;83;20917;-65
2021/07/22 02:38:41;;;;;;;4.28;3.67;;;;;;;16.64;71.47;98718.79;1645568;84;21378;-65
2021/07/22 02:41:08;;;;;;;8.13;4.60;;;;;;;16.64;71.64;98714.72;1679864;84;20941;-65
2021/07/22 02:43:35;;;;;;;7.08;4.15;;;;;;;16.64;71.47;98712.01;1679638;85;20945;-65
2021/07/22 02:46:07;;;;;;;4.80;4.08;;;;;;;16.64;71.58;98709.30;1679476;85;21136;-66
2021/07/22 02:48:37;;;;;;;;;;;;;;;16.64;71.61;98710.14;1682269;85;20941;-65
2021/07/22 02:51:06;;;;;;;6.20;3.80;;;;;;;16.66;71.49;98711.36;1679615;85;20092;-65
2021/07/22 02:53:37;;;;;;;4.85;4.45;;;;;;;16.65;71.62;98710.99;1679578;85;21453;-65
2021/07/22 02:56:23;;;;;;;5.55;4.30;;;;;;;16.67;71.95;98711.73;1679522;85;20953;-65
2021/07/22 02:58:51;;;;;;;9.88;3.92;;;;;;;16.68;71.51;98713.43;1679543;85;21128;-64
2021/07/22 03:01:18;;;;;;;4.92;4.15;;;;;;;16.69;71.56;98715.16;1679836;85;20930;-65
2021/07/22 03:03:44;;;;;;;4.05;3.47;;;;;;;16.69;71.69;98715.16;1679594;85;20992;-64
2021/07/22 03:06:15;;;;;;;4.70;3.77;;;;;;;16.71;71.51;98713.16;1679852;85;21036;-65
2021/07/22 03:08:45;;;;;;;5.30;3.73;;;;;;;16.73;71.42;98713.90;1679881;85;20941;-65
2021/07/22 03:11:13;;;;;;;5.05;3.50;;;;;;;16.73;71.30;98716.61;1679450;85;21165;-64
2021/07/22 03:13:40;;;;;;;4.20;3.80;;;;;;;16.73;71.16;98713.90;1679447;85;20905;-65
2021/07/22 03:16:08;;;;;;;4.45;4.00;;;;;;;16.72;71.05;98718.44;1679761;85;21378;-65
2021/07/22 03:18:36;;;;;;;5.10;4.20;;;;;;;16.72;71.26;98718.44;1678261;85;20937;-65
2021/07/22 03:21:05;;;;;;;4.20;3.67;;;;;;;16.74;71.24;98716.47;1679568;85;20953;-65
2021/07/22 03:23:32;;;;;;;7.40;3.90;;;;;;;16.77;71.18;98716.67;1679431;85;21861;-65
2021/07/22 03:25:58;;;;;;;5.33;4.45;;;;;;;16.77;71.24;98718.03;1679721;85;21415;-65
2021/07/22 03:28:27;;;;;;;8.65;4.15;;;;;;;16.78;71.07;98717.05;1679407;85;20858;-64
2021/07/22 03:31:01;;;;;;;6.85;3.75;;;;;;;16.78;71.40;98714.34;1653580;85;20914;-65
2021/07/22 03:33:38;;;;;;;5.20;3.72;;;;;;;16.80;71.36;98719.95;1678140;85;20921;-65
2021/07/22 03:36:19;;;;;;;5.15;3.98;;;;;;;16.83;71.86;98710.70;1679851;85;21355;-64
2021/07/22 03:38:50;;;;;;;9.45;4.35;;;;;;;16.86;71.70;98714.52;1678062;85;20938;-64
2021/07/22 03:41:35;;;;;;;5.05;3.83;;;;;;;16.88;71.14;98713.87;1698780;84;21080;-64
2021/07/22 03:44:10;;;;;;;4.65;4.05;;;;;;;16.90;70.74;98715.98;1699262;84;20954;-64
2021/07/22 03:46:38;;;;;;;5.17;3.87;;;;;;;16.90;71.14;98710.55;1699400;84;20869;-64
2021/07/22 03:49:07;;;;;;;8.48;3.65;;;;;;;16.91;71.04;98714.96;1699399;84;21971;-64
2021/07/22 03:51:34;;;;;;;4.08;3.77;;;;;;;16.94;70.90;98718.75;1699448;84;21389;-64
2021/07/22 03:54:04;;;;;;;5.08;4.20;;;;;;;16.97;71.03;98715.77;1699297;84;21011;-64
2021/07/22 03:56:34;;;;;;;5.62;4.00;;;;;;;17.01;71.64;98719.55;1679922;84;21456;-64
2021/07/22 03:59:06;;;;;;;7.10;4.42;;;;;;;17.02;71.24;98718.56;1699173;84;20948;-64
2021/07/22 04:01:35;;;;;;;9.50;4.65;;;;;;;17.05;71.24;98716.42;1699362;84;22450;-65
2021/07/22 04:04:04;;;;;;;6.12;4.50;;;;;;;17.09;70.98;98720.58;1699403;84;21012;-64
2021/07/22 04:06:36;;;;;;;4.42;4.00;;;;;;;17.13;70.98;98722.52;1699695;83;20873;-64
2021/07/22 04:09:05;;;;;;;6.37;4.30;;;;;;;17.15;70.76;98721.86;1699380;84;20996;-64
2021/07/22 04:11:51;;;;;;;5.17;3.83;;;;;;;17.17;70.86;98722.59;1699452;84;20901;-64
2021/07/22 04:14:35;;;;;;;6.30;3.87;;;;;;;17.20;70.61;98717.38;1699382;84;21130;-66
2021/07/22 04:17:14;;;;;;;4.40;3.70;;;;;;;17.20;70.49;98714.17;1670106;84;20874;-66
2021/07/22 04:19:59;;;;;;;5.10;3.47;;;;;;;17.23;70.54;98716.61;1699592;84;20868;-66
2021/07/22 04:22:42;;;;;;;5.45;3.67;;;;;;;17.27;70.75;98722.09;1641740;87;21016;-66
2021/07/22 04:25:23;;;;;;;10.18;4.55;;;;;;;17.30;70.91;98719.10;1684359;84;20968;-66
2021/07/22 04:27:54;;;;;;;4.92;4.40;;;;;;;17.32;70.64;98723.88;1699314;84;21218;-65
2021/07/22 04:30:23;;;;;;;4.45;3.62;;;;;;;17.36;70.34;98729.03;1699260;84;21492;-65
2021/07/22 04:33:03;;;;;;;4.20;3.72;;;;;;;17.38;70.40;98725.19;1698939;84;21449;-64
2021/07/22 04:35:32;;;;;;;5.60;3.52;;;;;;;17.41;70.55;98725.41;1699408;83;20916;-64
2021/07/22 04:38:09;;;;;;;10.53;4.12;;;;;;;17.45;70.17;98724.11;1698705;84;20881;-64
2021/07/22 04:40:54;;;;;;;14.90;5.97;;;;;;;17.46;70.23;98721.77;1699289;84;21132;-64
2021/07/22 04:43:40;;;;;;;8.48;3.80;;;;;;;17.50;70.54;98719.98;1699439;84;20857;-66
2021/07/22 04:46:15;;;;;;;8.10;4.03;;;;;;;17.54;70.61;98723.77;1699359;84;20940;-66
2021/07/22 04:48:43;;;;;;;4.47;4.00;;;;;;;17.57;70.19;98721.61;1699176;84;21465;-66
2021/07/22 04:51:28;;;;;;;4.65;3.70;;;;;;;17.63;70.22;98726.47;1699362;84;20861;-65
2021/07/22 04:54:05;;;;;;;5.62;3.65;;;;;;;17.71;70.38;98724.41;1699354;84;21477;-65
2021/07/22 04:56:32;;;;;;;6.00;4.03;;;;;;;17.76;70.21;98725.33;1699354;84;20987;-66
2021/07/22 04:58:59;;;;;;;4.70;4.30;;;;;;;17.80;70.11;98719.95;1699602;84;21322;-65
2021/07/22 05:01:28;;;;;;;6.22;3.80;;;;;;;17.85;70.01;98726.67;1699302;84;20948;-66
2021/07/22 05:03:55;;;;;;;6.55;4.45;;;;;;;17.90;69.82;98726.78;1699268;84;20952;-65
2021/07/22 05:06:23;;;;;;;10.45;4.95;;;;;;;17.96;69.65;98731.13;1699330;84;21062;-65
2021/07/22 05:09:05;;;;;;;4.83;3.77;;;;;;;18.04;69.61;98732.61;1698959;84;21382;-65
2021/07/22 05:11:40;;;;;;;4.30;3.83;;;;;;;18.12;69.49;98737.32;1698524;84;20853;-65
2021/07/22 05:14:27;;;;;;;5.60;4.08;;;;;;;18.19;69.22;98730.78;1699724;84;21382;-65
2021/07/22 05:17:02;;;;;;;5.10;3.70;;;;;;;18.23;69.26;98726.78;1699763;84;21418;-64
2021/07/22 05:19:42;;;;;;;3.83;3.40;;;;;;;18.29;69.06;98739.79;1699941;84;21148;-66
2021/07/22 05:22:10;;;;;;;4.75;4.05;;;;;;;18.37;68.85;98736.34;1699627;84;20869;-66
2021/07/22 05:24:42;;;;;;;8.20;3.98;;;;;;;18.44;68.58;98733.36;1698388;84;20937;-65
2021/07/22 05:27:22;;;;;;;6.00;3.85;;;;;;;18.52;68.44;98738.06;1699368;84;20897;-66
2021/07/22 05:29:56;;;;;;;6.87;3.42;;;;;;;18.60;68.61;98744.96;1699530;83;21477;-65
2021/07/22 05:32:25;;;;;;;5.85;4.30;;;;;;;18.69;67.95;98745.95;1697061;84;21157;-66
2021/07/22 05:35:03;;;;;;;3.72;3.33;;;;;;;18.76;67.70;98731.59;1699554;83;20979;-66
2021/07/22 05:37:34;;;;;;;5.30;3.80;;;;;;;18.88;67.15;98731.42;1699577;84;20976;-65
2021/07/22 05:40:01;;;;;;;4.25;3.52;;;;;;;19.02;67.01;98737.72;1697400;84;20944;-66
2021/07/22 05:42:28;;;;;;;4.65;3.55;;;;;;;19.13;66.64;98737.50;1679511;85;20905;-66
2021/07/22 05:44:54;;;;;;;4.67;3.72;;;;;;;19.32;66.61;98738.39;1679442;85;21118;-66
2021/07/22 05:47:22;;;;;;;7.37;3.77;;;;;;;19.50;65.47;98735.17;1679418;85;21036;-68
2021/07/22 05:49:49;;;;;;;4.15;3.75;;;;;;;19.74;65.44;98734.17;1678856;85;20945;-68
2021/07/22 05:52:17;;;;;;;6.17;3.77;;;;;;;19.93;64.15;98729.08;1679231;85;20941;-69
2021/07/22 05:54:45;;;;;;;9.00;3.87;;;;;;;20.09;63.33;98738.77;1679393;85;20997;-69
2021/07/22 05:57:11;;;;;;;8.15;4.05;;;;;;;20.20;63.17;98737.66;1679577;85;21076;-70
2021/07/22 05:59:37;;;;;;;5.15;4.65;;;;;;;20.25;62.70;98735.30;1679617;85;20858;-74
2021/07/22 06:02:05;;;;;;;4.75;4.30;;;;;;;20.31;62.50;98736.55;1679369;85;20953;-70
2021/07/22 06:04:32;;;;;;;4.87;4.37;;;;;;;20.32;62.03;98735.51;1678973;85;20977;-69
2021/07/22 06:06:58;;;;;;;6.62;6.00;;;;;;;20.28;62.54;98728.68;1679239;85;20865;-70
2021/07/22 06:09:24;;;;;;;8.60;7.50;;;;;;;20.25;62.09;98729.00;1679831;85;21095;-69
2021/07/22 06:11:50;;;;;;;4.75;4.10;;;;;;;20.27;62.40;98733.78;1679285;85;21550;-69
2021/07/22 06:14:19;;;;;;;5.55;4.35;;;;;;;20.33;62.54;98731.77;1679395;85;21482;-70
2021/07/22 06:16:48;;;;;;;7.28;4.58;;;;;;;20.45;62.42;98730.48;1679602;85;20957;-69
2021/07/22 06:19:17;;;;;;;5.05;4.58;;;;;;;20.60;62.29;98728.00;1679507;85;20973;-71
2021/07/22 06:21:44;;;;;;;4.90;3.67;;;;;;;20.84;61.27;98731.89;1679468;85;21119;-75
2021/07/22 06:24:12;;;;;;;5.12;4.12;;;;;;;20.99;60.61;98732.14;1679509;85;20937;-79
2021/07/22 06:26:41;;;;;;;5.85;3.92;;;;;;;21.10;60.03;98730.47;1679490;85;20941;-76
2021/07/22 06:29:09;;;;;;;5.97;3.90;;;;;;;21.13;60.45;98730.14;1679801;85;20981;-72
2021/07/22 06:31:38;;;;;;;6.85;4.72;;;;;;;21.14;60.57;98732.34;1679489;85;20949;-72
2021/07/22 06:34:07;;;;;;;5.50;3.58;;;;;;;21.12;60.80;98730.63;1679760;85;21478;-72
2021/07/22 06:36:35;;;;;;;5.33;3.92;;;;;;;21.10;60.72;98729.95;1679462;85;21466;-69
2021/07/22 06:39:03;;;;;;;8.28;3.92;;;;;;;21.06;60.25;98735.91;1679513;85;20941;-69
2021/07/22 06:41:30;;;;;;;13.43;5.17;;;;;;;20.99;60.52;98733.51;1687642;84;20917;-69
2021/07/22 06:43:57;;;;;;;12.40;10.35;;;;;;;20.96;60.93;98736.05;1695073;84;20944;-72
2021/07/22 06:46:23;;;;;;;7.47;5.75;;;;;;;20.93;60.96;98733.64;1694760;84;21477;-69
2021/07/22 06:48:54;;;;;;;8.98;5.33;;;;;;;20.91;60.85;98741.16;1695265;84;20944;-76
2021/07/22 06:51:19;;;;;;;6.70;4.53;;;;;;;20.90;61.10;98735.34;1694930;84;20932;-73
2021/07/22 06:53:47;;;;;;;5.53;3.95;;;;;;;20.90;60.79;98743.01;1694806;84;20991;-70
2021/07/22 06:56:14;;;;;;;5.17;3.98;;;;;;;20.99;60.71;98732.14;1694827;84;21029;-71
2021/07/22 06:58:40;;;;;;;4.83;4.00;;;;;;;21.12;60.76;98725.69;1695222;84;21504;-71
2021/07/22 07:01:07;;;;;;;5.28;4.00;;;;;;;21.32;61.25;98725.39;1694800;84;20940;-71
2021/07/22 07:03:35;;;;;;;3.75;3.40;;;;;;;21.55;60.07;98713.34;1694725;84;20981;-68
2021/07/22 07:06:05;;;;;;;6.78;4.12;;;;;;;21.82;59.56;98710.78;1694703;84;20944;-79
2021/07/22 07:08:31;;;;;;;4.03;3.62;;;;;;;22.05;59.25;98708.74;1694923;84;21405;-71
2021/07/22 07:10:57;;;;;;;4.58;4.00;;;;;;;22.30;57.70;98715.06;1694864;84;21374;-75
2021/07/22 07:13:25;;;;;;;6.33;4.08;;;;;;;22.54;57.16;98711.41;1694894;84;21492;-68
2021/07/22 07:15:53;;;;;;;4.15;3.72;;;;;;;22.76;57.02;98708.95;1694729;84;20956;-72
2021/07/22 07:18:22;;;;;;;6.40;4.00;;;;;;;23.00;56.56;98714.30;1694928;84;20969;-72
2021/07/22 07:20:48;;;;;;;5.87;4.37;;;;;;;23.21;56.12;98710.14;1695284;84;20873;-73
2021/07/22 07:23:15;;;;;;;5.67;3.72;;;;;;;23.47;55.89;98713.05;1694842;84;21514;-71
2021/07/22 07:25:41;;;;;;;6.47;3.85;;;;;;;23.69;54.82;98712.72;1694688;83;20897;-70
2021/07/22 07:28:07;;;;;;;4.42;4.03;;;;;;;23.87;54.40;98706.94;1694865;84;20905;-70
2021/07/22 07:30:37;;;;;;;4.95;3.77;;;;;;;24.04;54.62;98705.75;1694739;84;21427;-72
2021/07/22 07:33:04;;;;;;;4.08;3.67;;;;;;;24.18;53.06;98709.05;1694974;84;21008;-70
2021/07/22 07:35:32;;;;;;;5.80;3.95;;;;;;;24.31;53.12;98708.93;1695118;84;21498;-73
2021/07/22 07:37:58;;;;;;;4.25;3.30;;;;;;;24.44;52.32;98711.02;1694860;84;20865;-76
2021/07/22 07:40:25;;;;;;;5.03;2.95;;;;;;;24.59;52.15;98710.55;1694809;84;20940;-75
2021/07/22 07:42:52;;;;;;;4.70;3.50;;;;;;;24.73;51.56;98712.97;1699109;84;20944;-73
2021/07/22 07:45:19;;;;;;;8.70;3.87;;;;;;;24.80;51.30;98712.55;1702900;84;20928;-74
2021/07/22 07:47:49;;;;;;;6.42;3.27;;;;;;;24.92;51.90;98712.91;1699338;84;21579;-70
2021/07/22 07:50:14;;;;;;;3.25;2.95;;;;;;;25.15;50.71;98716.91;1699363;84;20948;-71
2021/07/22 07:52:41;;;;;;;6.30;3.50;;;;;;;25.31;50.15;98720.51;1699395;84;20900;-75
2021/07/22 07:55:11;;;;;;;7.85;3.42;;;;;;;25.35;49.25;98712.19;1699344;84;20877;-76
2021/07/22 07:57:37;;;;;;;8.25;3.33;;;;;;;25.37;49.72;98716.98;1699254;84;20905;-74
2021/07/22 08:00:06;;;;;;;4.05;3.65;;;;;;;25.48;49.51;98716.47;1699298;84;21992;-73
2021/07/22 08:02:35;;;;;;;6.08;3.65;;;;;;;25.67;49.03;98708.60;1699235;84;21000;-74
2021/07/22 08:05:02;;;;;;;3.87;3.00;;;;;;;25.83;48.40;98700.64;1699608;84;20901;-75
2021/07/22 08:07:29;;;;;;;5.53;3.77;;;;;;;26.02;48.46;98706.86;1699298;84;20956;-75
2021/07/22 08:09:56;;;;;;;5.50;3.58;;;;;;;26.10;48.16;98707.25;1699482;84;20996;-75
2021/07/22 08:12:22;;;;;;;8.33;4.35;;;;;;;26.22;48.12;98715.29;1699163;84;21011;-76
2021/07/22 08:14:50;;;;;;;4.83;4.28;;;;;;;26.29;47.61;98706.54;1699310;84;20940;-74
2021/07/22 08:17:17;;;;;;;3.50;3.20;;;;;;;26.38;47.34;98710.51;1699291;84;20948;-74
2021/07/22 08:19:43;;;;;;;3.98;3.05;;;;;;;26.46;46.53;98709.84;1699184;84;20979;-76
2021/07/22 08:22:13;;;;;;;4.03;3.22;;;;;;;26.56;46.17;98705.34;1699714;84;20900;-70
2021/07/22 08:24:40;;;;;;;3.92;2.55;;;;;;;26.59;45.93;98705.48;1699366;84;21125;-69
2021/07/22 08:27:07;;;;;;;8.78;3.75;;;;;;;26.58;45.72;98710.11;1699402;84;21522;-69
2021/07/22 08:29:39;;;;;;;5.20;3.20;;;;;;;26.60;45.93;98715.42;1699233;84;20940;-69
2021/07/22 08:32:09;;;;;;;6.62;4.10;;;;;;;26.58;45.67;98707.36;1699406;84;21000;-74
2021/07/22 08:34:37;;;;;;;6.03;3.35;;;;;;;26.51;46.11;98710.62;1699253;83;20999;-74
2021/07/22 08:37:11;;;;;;;5.75;3.33;;;;;;;26.42;46.79;98713.20;1699598;84;21463;-74
2021/07/22 08:39:42;;;;;;;4.15;3.10;;;;;;;26.28;47.27;98714.49;1699245;84;20899;-73
2021/07/22 08:42:10;;;;;;;7.62;2.98;;;;;;;26.10;47.25;98708.62;1696708;84;20964;-74
2021/07/22 08:44:42;;;;;;;6.97;3.02;;;;;;;25.94;47.53;98709.19;1693630;84;21008;-73
2021/07/22 08:47:10;;;;;;;8.95;3.50;;;;;;;25.81;47.21;98710.97;1695163;84;20940;-73
2021/07/22 08:49:38;;;;;;;6.80;3.67;;;;;;;25.67;47.84;98708.60;1694747;84;21220;-72
2021/07/22 08:52:09;;;;;;;6.25;3.62;;;;;;;25.52;48.91;98716.39;1695040;84;20945;-72
2021/07/22 08:54:37;;;;;;;4.70;3.20;;;;;;;25.46;48.81;98707.55;1694822;84;20904;-71
2021/07/22 08:57:12;;;;;;;4.47;3.83;;;;;;;25.43;49.01;98701.06;1694453;84;20953;-71
2021/07/22 08:59:40;;;;;;;;;;;;;;;25.45;48.82;98704.98;1697344;84;20889;-72
2021/07/22 09:02:07;;;;;;;8.18;3.15;;;;;;;25.48;48.59;98706.84;1696542;84;21154;-72
2021/07/22 09:04:51;;;;;;;4.47;3.30;;;;;;;25.52;47.32;98705.92;1694509;84;20956;-72
2021/07/22 09:07:19;;;;;;;7.30;3.77;;;;;;;25.53;47.60;98708.48;1694717;84;20862;-74
2021/07/22 09:10:09;;;;;;;4.03;3.62;;;;;;;25.47;48.19;98701.55;1694555;84;20988;-72
2021/07/22 09:12:52;;;;;;;4.15;3.70;;;;;;;25.42;48.25;98700.75;1694737;84;20944;-71
2021/07/22 09:15:32;;;;;;;5.40;3.45;;;;;;;25.35;48.74;98702.06;1694838;84;21135;-74
2021/07/22 09:17:59;;;;;;;6.33;4.15;;;;;;;25.31;49.17;98695.77;1694393;84;20940;-71
2021/07/22 09:20:33;;;;;;;3.40;3.10;;;;;;;25.24;50.21;98693.77;1694820;84;20908;-72
2021/07/22 09:23:01;;;;;;;4.67;2.90;;;;;;;25.30;48.71;98692.68;1694663;84;20937;-72
2021/07/22 09:25:44;;;;;;;4.03;3.30;;;;;;;25.38;48.21;98689.80;1694686;84;21438;-72
2021/07/22 09:28:18;;;;;;;4.00;3.52;;;;;;;25.49;48.72;98686.53;1694876;84;21539;-71
2021/07/22 09:31:04;;;;;;;3.58;3.27;;;;;;;25.61;48.25;98686.34;1694804;84;20987;-73
2021/07/22 09:33:40;;;;;;;5.55;3.37;;;;;;;25.76;47.01;98686.80;1694671;84;20956;-74
2021/07/22 09:36:27;;;;;;;5.33;3.37;;;;;;;25.87;47.53;98676.63;1694809;83;21484;-73
2021/07/22 09:38:54;;;;;;;2.80;2.47;;;;;;;25.92;46.48;98687.04;1694514;84;20959;-71
2021/07/22 09:41:22;;;;;;;3.60;3.22;;;;;;;25.84;45.87;98682.55;1695478;84;21050;-74
2021/07/22 09:43:51;;;;;;;4.05;2.72;;;;;;;25.73;45.56;98681.69;1699140;84;21382;-74
2021/07/22 09:46:21;;;;;;;3.30;2.90;;;;;;;25.65;45.90;98685.95;1699429;83;20948;-75
2021/07/22 09:49:09;;;;;;;3.70;2.75;;;;;;;25.58;46.57;98686.73;1698753;84;20873;-76
2021/07/22 09:51:37;;;;;;;5.35;3.08;;;;;;;25.53;47.02;98683.73;1699506;84;21431;-74
2021/07/22 09:54:10;;;;;;;3.10;2.80;;;;;;;25.49;46.37;98679.66;1699236;84;21144;-74
2021/07/22 09:56:41;;;;;;;6.07;3.20;;;;;;;25.45;46.45;98675.61;1699352;84;20968;-76
2021/07/22 09:59:09;;;;;;;4.08;3.25;;;;;;;25.46;45.51;98675.92;1698832;84;20869;-74
2021/07/22 10:01:46;;;;;;;3.33;2.90;;;;;;;25.42;45.76;98676.01;1699611;84;21438;-75
2021/07/22 10:04:14;;;;;;;5.97;3.15;;;;;;;25.38;45.82;98680.18;1699459;84;20991;-74
2021/07/22 10:06:45;;;;;;;7.60;3.52;;;;;;;25.33;45.49;98682.67;1698924;84;21065;-74
2021/07/22 10:09:16;;;;;;;3.80;3.50;;;;;;;25.30;46.69;98678.41;1699509;84;22655;-74
2021/07/22 10:11:45;;;;;;;3.85;3.08;;;;;;;25.35;47.29;98677.82;1699512;84;20944;-73
2021/07/22 10:14:14;;;;;;;3.98;2.72;;;;;;;25.40;47.12;98675.33;1699738;84;21046;-74
2021/07/22 10:16:42;;;;;;;14.73;3.55;;;;;;;25.44;48.33;98676.66;1699715;84;20932;-72
2021/07/22 10:19:08;;;;;;;4.40;3.37;;;;;;;25.50;47.26;98675.03;1699469;84;21001;-74
2021/07/22 10:21:35;;;;;;;5.33;3.02;;;;;;;25.54;47.63;98670.32;1699476;84;20944;-72
2021/07/22 10:24:03;;;;;;;3.22;2.92;;;;;;;25.61;47.66;98678.09;1699374;84;20947;-71
2021/07/22 10:26:30;;;;;;;3.98;3.00;;;;;;;25.65;47.57;98674.95;1699463;83;20928;-73
2021/07/22 10:28:59;;;;;;;3.37;3.05;;;;;;;25.68;47.35;98678.69;1699281;84;20967;-73
2021/07/22 10:31:26;;;;;;;5.20;2.80;;;;;;;25.70;47.90;98672.45;1699562;84;21601;-72
2021/07/22 10:33:52;;;;;;;3.87;3.47;;;;;;;25.75;47.99;98672.73;1699329;84;21007;-71
2021/07/22 10:36:20;;;;;;;4.10;2.83;;;;;;;25.81;47.08;98669.19;1699264;84;20904;-75
